createdAt,value
2022-10-02T00:01:45.850Z,6.90
2022-10-02T00:04:16.109Z,7.75
2022-10-02T00:06:47.655Z,9.18
2022-10-02T00:09:24.588Z,5.95
2022-10-02T00:11:58.075Z,11.40
2022-10-02T00:14:28.337Z,10.82
2022-10-02T00:16:58.802Z,9.30
2022-10-02T00:19:25.648Z,8.75
2022-10-02T00:22:14.693Z,7.28
2022-10-02T00:25:01.059Z,9.02
2022-10-02T00:27:39.329Z,10.82
2022-10-02T00:30:09.160Z,12.48
2022-10-02T00:35:58.219Z,15.75
2022-10-02T00:38:31.580Z,23.77
2022-10-02T00:41:21.381Z,32.92
2022-10-02T00:43:51.136Z,27.05
2022-10-02T00:46:29.516Z,46.00
2022-10-02T00:49:11.369Z,22.50
2022-10-02T00:51:40.956Z,8.43
2022-10-02T00:54:39.620Z,6.57
2022-10-02T00:57:13.806Z,7.15
2022-10-02T01:00:16.976Z,7.07
2022-10-02T01:02:54.716Z,8.38
2022-10-02T01:05:21.802Z,10.38
2022-10-02T01:07:52.920Z,8.15
2022-10-02T01:10:22.359Z,9.65
2022-10-02T01:12:50.406Z,6.63
2022-10-02T01:15:20.436Z,13.68
2022-10-02T01:17:50.012Z,9.60
2022-10-02T01:20:22.708Z,6.40
2022-10-02T01:23:01.204Z,9.77
2022-10-02T01:25:28.641Z,8.63
2022-10-02T01:27:55.436Z,7.55
2022-10-02T01:30:22.556Z,7.97
2022-10-02T01:32:53.565Z,10.13
2022-10-02T01:35:22.696Z,7.63
2022-10-02T01:37:51.633Z,9.85
2022-10-02T01:40:31.281Z,11.90
2022-10-02T01:43:02.724Z,9.55
2022-10-02T01:45:54.361Z,8.23
2022-10-02T01:48:42.510Z,7.28
2022-10-02T01:51:35.524Z,8.25
2022-10-02T01:54:13.366Z,7.85
2022-10-02T01:56:49.069Z,8.07
2022-10-02T01:59:27.853Z,13.93
2022-10-02T02:02:00.670Z,11.13
2022-10-02T02:04:35.528Z,9.07
2022-10-02T02:07:35.813Z,11.82
2022-10-02T02:10:14.516Z,7.70
2022-10-02T02:12:53.961Z,9.38
2022-10-02T02:15:28.783Z,8.85
2022-10-02T02:18:06.853Z,8.43
2022-10-02T02:20:38.613Z,9.55
2022-10-02T02:23:10.851Z,10.80
2022-10-02T02:25:45.913Z,10.25
2022-10-02T02:28:15.360Z,12.23
2022-10-02T02:30:45.964Z,11.65
2022-10-02T02:33:18.375Z,8.50
2022-10-02T02:35:49.285Z,9.32
2022-10-02T02:38:23.211Z,8.02
2022-10-02T02:40:51.837Z,9.93
2022-10-02T02:43:27.405Z,16.35
2022-10-02T02:45:57.490Z,12.45
2022-10-02T02:48:34.522Z,11.23
2022-10-02T02:51:11.763Z,12.63
2022-10-02T02:53:48.704Z,14.38
2022-10-02T02:56:19.725Z,12.32
2022-10-02T02:58:58.318Z,10.07
2022-10-02T03:01:24.968Z,10.70
2022-10-02T03:03:51.630Z,15.68
2022-10-02T03:06:21.789Z,10.18
2022-10-02T03:08:51.662Z,8.48
2022-10-02T03:14:01.781Z,15.75
2022-10-02T03:16:42.655Z,7.15
2022-10-02T03:19:41.291Z,9.32
2022-10-02T03:22:25.828Z,11.68
2022-10-02T03:25:24.300Z,12.95
2022-10-02T03:28:27.161Z,12.27
2022-10-02T03:31:04.554Z,13.48
2022-10-02T03:33:36.517Z,13.65
2022-10-02T03:36:04.519Z,10.48
2022-10-02T03:38:33.098Z,8.00
2022-10-02T03:40:59.927Z,13.70
2022-10-02T03:43:29.318Z,15.27
2022-10-02T03:45:56.916Z,15.18
2022-10-02T03:48:23.662Z,15.65
2022-10-02T03:50:54.062Z,9.20
2022-10-02T03:53:29.832Z,10.48
2022-10-02T03:56:09.602Z,11.75
2022-10-02T03:58:41.095Z,9.10
2022-10-02T04:01:17.683Z,9.30
2022-10-02T04:03:51.013Z,8.45
2022-10-02T04:06:41.836Z,9.45
2022-10-02T04:09:28.415Z,9.90
2022-10-02T04:12:10.898Z,9.80
2022-10-02T04:14:48.193Z,9.30
2022-10-02T04:17:58.759Z,8.98
2022-10-02T04:20:54.282Z,9.50
2022-10-02T04:23:31.616Z,8.50
2022-10-02T04:26:27.576Z,8.57
2022-10-02T04:29:14.085Z,7.97
2022-10-02T04:31:40.816Z,9.95
2022-10-02T04:34:12.356Z,13.18
2022-10-02T04:37:09.244Z,11.18
2022-10-02T04:40:02.866Z,10.20
2022-10-02T04:42:41.646Z,8.68
2022-10-02T04:45:23.334Z,10.07
2022-10-02T04:48:02.520Z,15.23
2022-10-02T04:50:35.088Z,14.80
2022-10-02T04:53:40.512Z,16.23
2022-10-02T04:56:41.893Z,19.25
2022-10-02T04:59:08.633Z,14.57
2022-10-02T05:02:07.832Z,10.00
2022-10-02T05:04:43.634Z,11.93
2022-10-02T05:07:28.665Z,12.88
2022-10-02T05:10:04.571Z,11.35
2022-10-02T05:12:53.945Z,13.57
2022-10-02T05:15:41.406Z,13.73
2022-10-02T05:18:17.955Z,12.15
2022-10-02T05:21:01.093Z,11.57
2022-10-02T05:23:39.897Z,14.48
2022-10-02T05:26:42.901Z,13.40
2022-10-02T05:29:32.783Z,16.05
2022-10-02T05:34:52.180Z,12.90
2022-10-02T05:38:12.464Z,9.00
2022-10-02T05:41:00.376Z,11.88
2022-10-02T05:43:32.756Z,10.98
2022-10-02T05:46:05.719Z,10.15
2022-10-02T05:48:58.426Z,15.48
2022-10-02T05:51:43.661Z,7.97
2022-10-02T05:54:13.391Z,8.32
2022-10-02T05:56:50.656Z,8.27
2022-10-02T05:59:45.068Z,8.82
2022-10-02T06:02:24.422Z,7.68
2022-10-02T06:05:00.298Z,8.05
2022-10-02T06:07:28.125Z,11.25
2022-10-02T06:10:01.770Z,7.45
2022-10-02T06:12:40.979Z,11.82
2022-10-02T06:15:22.701Z,7.05
2022-10-02T06:18:06.138Z,8.75
2022-10-02T06:21:10.356Z,6.93
2022-10-02T06:23:48.622Z,7.85
2022-10-02T06:26:39.760Z,11.35
2022-10-02T06:29:18.641Z,11.32
2022-10-02T06:31:53.494Z,8.60
2022-10-02T06:34:20.818Z,7.35
2022-10-02T06:37:27.472Z,6.53
2022-10-02T06:40:32.888Z,5.82
2022-10-02T06:43:30.575Z,6.55
2022-10-02T06:46:14.410Z,9.27
2022-10-02T06:48:54.762Z,6.18
2022-10-02T06:51:26.946Z,8.65
2022-10-02T06:54:12.296Z,7.47
2022-10-02T06:56:41.970Z,5.55
2022-10-02T06:59:45.718Z,6.13
2022-10-02T07:02:35.991Z,5.70
2022-10-02T07:05:32.724Z,5.85
2022-10-02T07:08:29.248Z,5.53
2022-10-02T07:11:13.386Z,7.03
2022-10-02T07:14:09.376Z,5.60
2022-10-02T07:16:57.671Z,5.10
2022-10-02T07:19:59.416Z,4.82
2022-10-02T07:23:07.821Z,6.63
2022-10-02T07:25:46.413Z,4.82
2022-10-02T07:28:39.884Z,6.47
2022-10-02T07:31:35.394Z,4.43
2022-10-02T07:34:30.921Z,6.38
2022-10-02T07:37:22.231Z,6.32
2022-10-02T07:40:24.908Z,7.22
2022-10-02T07:42:58.028Z,4.05
2022-10-02T07:45:59.434Z,4.97
2022-10-02T07:48:49.903Z,4.25
2022-10-02T07:51:48.621Z,3.05
2022-10-02T07:54:34.509Z,3.80
2022-10-02T07:57:13.895Z,7.57
2022-10-02T07:59:43.697Z,3.22
2022-10-02T08:04:47.161Z,3.17
2022-10-02T08:07:14.209Z,11.00
2022-10-02T08:09:47.574Z,4.85
2022-10-02T08:12:27.620Z,4.93
2022-10-02T08:14:57.360Z,6.13
2022-10-02T08:19:52.528Z,3.70
2022-10-02T08:22:26.556Z,5.47
2022-10-02T08:25:02.141Z,9.02
2022-10-02T08:27:49.199Z,4.00
2022-10-02T08:30:16.304Z,5.97
2022-10-02T08:32:43.969Z,4.45
2022-10-02T08:35:19.157Z,5.80
2022-10-02T08:38:02.648Z,6.88
2022-10-02T08:40:56.552Z,5.32
2022-10-02T08:43:53.937Z,3.50
2022-10-02T08:46:29.640Z,5.32
2022-10-02T08:49:28.656Z,4.40
2022-10-02T08:52:21.160Z,2.85
2022-10-02T08:55:25.254Z,8.38
2022-10-02T08:58:13.485Z,6.85
2022-10-02T09:00:55.737Z,4.10
2022-10-02T09:04:12.991Z,4.18
2022-10-02T09:07:09.856Z,4.40
2022-10-02T09:10:01.231Z,3.50
2022-10-02T09:13:09.994Z,5.38
2022-10-02T09:15:55.231Z,5.47
2022-10-02T09:18:44.452Z,6.30
2022-10-02T09:21:48.123Z,4.25
2022-10-02T09:24:26.863Z,6.57
2022-10-02T09:27:14.812Z,15.52
2022-10-02T09:30:13.728Z,6.40
2022-10-02T09:33:09.380Z,6.25
2022-10-02T09:35:58.850Z,4.22
2022-10-02T09:39:15.657Z,6.22
2022-10-02T09:42:03.991Z,6.65
2022-10-02T09:45:00.426Z,4.70
2022-10-02T09:48:04.932Z,5.07
2022-10-02T09:50:47.702Z,8.50
2022-10-02T09:53:14.248Z,6.95
2022-10-02T09:55:42.965Z,5.13
2022-10-02T09:58:29.874Z,7.18
2022-10-02T10:01:33.858Z,4.63
2022-10-02T10:04:19.187Z,4.60
2022-10-02T10:07:04.684Z,7.43
2022-10-02T10:10:08.868Z,5.18
2022-10-02T10:13:06.617Z,7.15
2022-10-02T10:15:51.703Z,6.32
2022-10-02T10:18:21.146Z,6.75
2022-10-02T10:21:29.462Z,3.95
2022-10-02T10:24:09.639Z,3.10
2022-10-02T10:26:45.425Z,6.05
2022-10-02T10:29:21.313Z,7.35
2022-10-02T10:32:21.276Z,5.55
2022-10-02T10:35:03.065Z,6.32
2022-10-02T10:37:57.560Z,4.57
2022-10-02T10:40:38.735Z,5.78
2022-10-02T10:43:33.350Z,12.43
2022-10-02T10:46:37.718Z,5.38
2022-10-02T10:49:31.896Z,5.95
2022-10-02T10:52:11.641Z,5.25
2022-10-02T10:57:52.196Z,4.57
2022-10-02T11:00:18.772Z,5.78
2022-10-02T11:02:48.539Z,4.47
2022-10-02T11:08:19.104Z,6.63
2022-10-02T11:10:45.695Z,5.38
2022-10-02T11:13:50.084Z,12.02
2022-10-02T11:16:35.471Z,7.57
2022-10-02T11:19:22.781Z,4.10
2022-10-02T11:21:58.258Z,5.47
2022-10-02T11:24:50.933Z,6.68
2022-10-02T11:27:28.931Z,4.50
2022-10-02T11:30:10.197Z,8.65
2022-10-02T11:33:10.715Z,6.70
2022-10-02T11:35:48.993Z,6.05
2022-10-02T11:38:59.127Z,5.97
2022-10-02T11:41:43.755Z,5.75
2022-10-02T11:44:51.679Z,5.50
2022-10-02T11:47:29.882Z,5.75
2022-10-02T11:50:21.387Z,4.97
2022-10-02T11:52:50.940Z,7.40
2022-10-02T11:55:37.715Z,6.28
2022-10-02T11:58:23.138Z,6.38
2022-10-02T12:00:58.998Z,5.68
2022-10-02T12:03:38.671Z,6.18
2022-10-02T12:08:59.338Z,8.25
2022-10-02T12:11:55.496Z,4.90
2022-10-02T12:14:47.988Z,4.38
2022-10-02T12:17:34.826Z,6.05
2022-10-02T12:20:40.121Z,8.05
2022-10-02T12:23:41.036Z,5.75
2022-10-02T12:26:40.304Z,5.97
2022-10-02T12:29:10.182Z,7.95
2022-10-02T12:32:23.222Z,10.35
2022-10-02T12:35:22.935Z,8.10
2022-10-02T12:40:46.528Z,6.22
2022-10-02T12:43:27.039Z,5.43
2022-10-02T12:45:59.829Z,4.68
2022-10-02T12:49:04.024Z,6.18
2022-10-02T12:51:37.433Z,7.45
2022-10-02T12:54:22.955Z,8.98
2022-10-02T12:57:08.414Z,7.05
2022-10-02T12:59:42.342Z,5.18
2022-10-02T13:02:12.054Z,6.30
2022-10-02T13:07:39.135Z,5.43
2022-10-02T13:10:19.650Z,7.43
2022-10-02T13:13:10.338Z,6.22
2022-10-02T13:16:02.761Z,6.60
2022-10-02T13:18:43.362Z,8.43
2022-10-02T13:21:13.545Z,5.93
2022-10-02T13:23:52.238Z,6.32
2022-10-02T13:27:06.953Z,6.05
2022-10-02T13:29:48.250Z,7.30
2022-10-02T13:32:35.944Z,7.95
2022-10-02T13:35:05.414Z,5.20
2022-10-02T13:37:34.963Z,8.63
2022-10-02T13:40:33.871Z,8.73
2022-10-02T13:43:16.470Z,7.13
2022-10-02T13:46:08.376Z,7.15
2022-10-02T13:48:38.004Z,5.53
2022-10-02T13:51:14.123Z,6.57
2022-10-02T13:54:09.123Z,7.25
2022-10-02T13:56:38.730Z,6.35
2022-10-02T13:59:37.757Z,6.97
2022-10-02T14:02:43.100Z,7.53
2022-10-02T14:05:12.658Z,5.00
2022-10-02T14:07:54.500Z,5.30
2022-10-02T14:10:34.118Z,6.35
2022-10-02T14:13:14.955Z,3.95
2022-10-02T14:15:51.103Z,4.97
2022-10-02T14:18:27.350Z,4.35
2022-10-02T14:20:59.931Z,4.97
2022-10-02T14:23:42.187Z,6.43
2022-10-02T14:26:40.768Z,3.13
2022-10-02T14:29:18.118Z,4.70
2022-10-02T14:32:26.747Z,6.63
2022-10-02T14:35:21.024Z,6.13
2022-10-02T14:38:31.749Z,7.75
2022-10-02T14:41:09.808Z,7.35
2022-10-02T14:44:01.534Z,7.03
2022-10-02T14:46:40.517Z,6.40
2022-10-02T14:49:25.391Z,6.05
2022-10-02T14:52:51.498Z,7.88
2022-10-02T14:55:37.252Z,9.30
2022-10-02T14:58:14.977Z,5.50
2022-10-02T15:01:02.827Z,4.75
2022-10-02T15:03:48.479Z,3.95
2022-10-02T15:06:42.817Z,7.07
2022-10-02T15:09:24.185Z,5.22
2022-10-02T15:12:06.334Z,9.88
2022-10-02T15:14:42.184Z,11.00
2022-10-02T15:17:48.821Z,4.75
2022-10-02T15:20:43.295Z,9.13
2022-10-02T15:23:24.442Z,10.35
2022-10-02T15:26:05.757Z,5.50
2022-10-02T15:29:30.955Z,7.32
2022-10-02T15:32:19.408Z,6.50
2022-10-02T15:35:01.336Z,5.25
2022-10-02T15:37:56.343Z,4.35
2022-10-02T15:40:30.905Z,5.90
2022-10-02T15:43:19.661Z,9.70
2022-10-02T15:45:55.404Z,9.10
2022-10-02T15:48:34.659Z,8.60
2022-10-02T15:51:38.501Z,5.72
2022-10-02T15:54:33.252Z,5.93
2022-10-02T15:57:27.239Z,7.25
2022-10-02T16:00:14.901Z,9.05
2022-10-02T16:03:10.140Z,11.70
2022-10-02T16:05:51.057Z,4.75
2022-10-02T16:08:26.640Z,9.57
2022-10-02T16:10:57.114Z,8.02
2022-10-02T16:13:47.153Z,14.57
2022-10-02T16:16:34.008Z,10.60
2022-10-02T16:19:03.675Z,9.75
2022-10-02T16:21:45.394Z,14.13
2022-10-02T16:24:23.929Z,8.63
2022-10-02T16:27:27.948Z,22.75
2022-10-02T16:30:14.237Z,9.20
2022-10-02T16:33:00.797Z,9.98
2022-10-02T16:36:01.599Z,9.95
2022-10-02T16:38:50.603Z,12.55
2022-10-02T16:41:40.063Z,18.17
2022-10-02T16:44:34.122Z,91.10
2022-10-02T16:47:25.901Z,38.40
2022-10-02T16:50:20.434Z,21.75
2022-10-02T16:53:04.975Z,11.50
2022-10-02T16:55:45.752Z,12.63
2022-10-02T16:58:24.567Z,13.02
2022-10-02T17:01:07.317Z,14.25
2022-10-02T17:03:44.334Z,12.15
2022-10-02T17:06:18.008Z,13.02
2022-10-02T17:08:54.015Z,19.73
2022-10-02T17:11:26.053Z,22.95
2022-10-02T17:14:22.007Z,11.88
2022-10-02T17:16:55.542Z,9.05
2022-10-02T17:19:30.661Z,17.05
2022-10-02T17:22:13.848Z,11.90
2022-10-02T17:24:40.415Z,15.60
2022-10-02T17:27:25.925Z,13.07
2022-10-02T17:30:13.517Z,17.38
2022-10-02T17:32:46.210Z,11.52
2022-10-02T17:35:32.503Z,13.35
2022-10-02T17:38:11.920Z,11.07
2022-10-02T17:40:50.451Z,15.25
2022-10-02T17:43:24.003Z,13.93
2022-10-02T17:46:11.092Z,10.60
2022-10-02T17:48:42.969Z,15.90
2022-10-02T17:51:24.488Z,10.55
2022-10-02T17:54:36.728Z,12.75
2022-10-02T17:57:16.457Z,9.95
2022-10-02T17:59:46.108Z,17.25
2022-10-02T18:02:22.494Z,17.33
2022-10-02T18:05:12.221Z,13.63
2022-10-02T18:08:00.062Z,20.35
2022-10-02T18:10:58.697Z,17.38
2022-10-02T18:13:43.944Z,20.45
2022-10-02T18:16:33.118Z,18.00
2022-10-02T18:19:21.140Z,24.80
2022-10-02T18:22:13.961Z,22.00
2022-10-02T18:25:19.275Z,16.73
2022-10-02T18:28:13.944Z,24.13
2022-10-02T18:30:49.241Z,23.65
2022-10-02T18:33:16.300Z,29.98
2022-10-02T18:35:57.371Z,43.97
2022-10-02T18:38:31.582Z,31.48
2022-10-02T18:41:27.900Z,30.08
2022-10-02T18:44:20.957Z,36.35
2022-10-02T18:47:02.708Z,37.28
2022-10-02T18:49:29.279Z,30.90
2022-10-02T18:52:06.224Z,34.35
2022-10-02T18:55:08.544Z,26.80
2022-10-02T18:58:07.443Z,37.83
2022-10-02T19:01:00.364Z,34.03
2022-10-02T19:03:34.971Z,35.38
2022-10-02T19:06:24.311Z,35.92
2022-10-02T19:09:14.928Z,36.50
2022-10-02T19:11:56.785Z,38.88
2022-10-02T19:14:41.791Z,40.13
2022-10-02T19:17:18.009Z,45.00
2022-10-02T19:19:44.873Z,55.28
2022-10-02T19:22:18.726Z,54.10
2022-10-02T19:24:49.629Z,48.05
2022-10-02T19:27:36.280Z,51.90
2022-10-02T19:30:21.438Z,47.13
2022-10-02T19:32:50.774Z,43.90
2022-10-02T19:35:39.791Z,36.78
2022-10-02T19:38:27.749Z,40.47
2022-10-02T19:40:57.305Z,46.13
2022-10-02T19:43:34.331Z,34.03
2022-10-02T19:46:05.824Z,38.78
2022-10-02T19:48:33.373Z,35.75
2022-10-02T19:51:03.296Z,34.92
2022-10-02T19:56:35.743Z,32.20
2022-10-02T19:59:12.710Z,24.52
2022-10-02T20:01:48.855Z,25.90
2022-10-02T20:04:24.394Z,26.33
2022-10-02T20:06:57.354Z,29.83
2022-10-02T20:09:50.486Z,25.05
2022-10-02T20:12:31.814Z,22.25
2022-10-02T20:15:01.227Z,24.08
2022-10-02T20:17:27.936Z,22.73
2022-10-02T20:19:58.208Z,15.23
2022-10-02T20:22:34.416Z,24.90
2022-10-02T20:25:04.235Z,18.27
2022-10-02T20:30:07.003Z,8.82
2022-10-02T20:32:55.761Z,13.13
2022-10-02T20:35:34.661Z,10.88
2022-10-02T20:38:29.172Z,8.90
2022-10-02T20:40:59.132Z,11.13
2022-10-02T20:43:45.697Z,12.50
2022-10-02T20:46:24.450Z,11.55
2022-10-02T20:49:13.910Z,17.67
2022-10-02T20:52:18.334Z,9.02
2022-10-02T20:55:03.641Z,6.93
2022-10-02T20:58:00.995Z,11.40
2022-10-02T21:00:33.221Z,10.30
2022-10-02T21:03:09.013Z,8.00
2022-10-02T21:05:49.747Z,9.23
2022-10-02T21:08:53.463Z,7.05
2022-10-02T21:11:46.684Z,11.60
2022-10-02T21:14:45.483Z,8.10
2022-10-02T21:17:24.198Z,5.25
2022-10-02T21:20:02.668Z,4.95
2022-10-02T21:22:29.247Z,6.80
2022-10-02T21:25:27.044Z,5.45
2022-10-02T21:28:15.430Z,9.40
2022-10-02T21:31:01.141Z,6.45
2022-10-02T21:33:40.092Z,8.48
2022-10-02T21:36:21.512Z,5.83
2022-10-02T21:39:24.834Z,7.22
2022-10-02T21:42:09.857Z,9.65
2022-10-02T21:44:56.016Z,10.57
2022-10-02T21:47:35.522Z,11.57
2022-10-02T21:50:10.846Z,7.55
2022-10-02T21:52:53.073Z,10.07
2022-10-02T21:55:42.685Z,7.72
2022-10-02T21:58:30.952Z,7.03
2022-10-02T22:00:58.534Z,7.03
2022-10-02T22:03:47.750Z,17.33
2022-10-02T22:06:36.715Z,10.20
2022-10-02T22:09:18.464Z,7.53
2022-10-02T22:11:58.867Z,15.15
2022-10-02T22:14:37.036Z,7.85
2022-10-02T22:17:42.969Z,9.15
2022-10-02T22:20:38.920Z,6.85
2022-10-02T22:23:35.246Z,7.95
2022-10-02T22:26:20.800Z,5.95
2022-10-02T22:29:12.991Z,7.70
2022-10-02T22:32:23.003Z,10.02
2022-10-02T22:35:11.780Z,10.32
2022-10-02T22:37:38.848Z,6.30
2022-10-02T22:40:12.341Z,6.65
2022-10-02T22:42:46.047Z,10.38
2022-10-02T22:45:39.851Z,5.38
2022-10-02T22:48:13.561Z,8.82
2022-10-02T22:50:48.109Z,7.88
2022-10-02T22:53:26.718Z,5.07
2022-10-02T22:55:55.919Z,7.43
2022-10-02T22:58:31.729Z,6.28
2022-10-02T23:01:28.649Z,6.28
2022-10-02T23:04:04.279Z,6.55
2022-10-02T23:06:41.632Z,8.10
2022-10-02T23:09:24.803Z,4.47
2022-10-02T23:12:15.200Z,7.28
2022-10-02T23:14:47.834Z,5.30
2022-10-02T23:17:22.437Z,5.82
2022-10-02T23:20:17.093Z,9.02
2022-10-02T23:22:59.878Z,6.75
2022-10-02T23:26:01.250Z,5.40
2022-10-02T23:28:53.132Z,5.07
2022-10-02T23:31:31.406Z,7.10
2022-10-02T23:33:58.236Z,6.68
2022-10-02T23:36:31.823Z,4.80
2022-10-02T23:39:05.529Z,6.18
2022-10-02T23:41:49.067Z,6.18
2022-10-02T23:44:41.935Z,5.00
2022-10-02T23:47:13.022Z,5.82
2022-10-02T23:49:44.869Z,4.93
2022-10-02T23:52:23.048Z,4.15
2022-10-02T23:55:03.131Z,6.28
2022-10-02T23:58:12.608Z,5.65
